createdAt,value
2018-06-24T00:00:07.289Z,65.20
2018-06-24T00:02:35.382Z,64.22
2018-06-24T00:05:03.520Z,64.21
2018-06-24T00:07:31.769Z,64.87
2018-06-24T00:09:59.892Z,64.99
2018-06-24T00:12:28.008Z,64.45
2018-06-24T00:14:56.278Z,63.47
2018-06-24T00:17:24.514Z,65.65
2018-06-24T00:19:53.069Z,64.09
2018-06-24T00:22:22.239Z,64.18
2018-06-24T00:24:50.337Z,63.84
2018-06-24T00:27:18.457Z,63.67
2018-06-24T00:29:46.616Z,63.53
2018-06-24T00:32:14.701Z,64.17
2018-06-24T00:34:42.797Z,63.72
2018-06-24T00:37:11.184Z,62.80
2018-06-24T00:39:39.242Z,63.28
2018-06-24T00:42:07.318Z,63.55
2018-06-24T00:44:35.701Z,64.71
2018-06-24T00:47:03.847Z,65.41
2018-06-24T00:49:31.968Z,65.14
2018-06-24T00:52:00.054Z,63.45
2018-06-24T00:54:28.139Z,64.04
2018-06-24T00:56:56.499Z,63.98
2018-06-24T00:59:36.042Z,63.58
2018-06-24T01:02:04.239Z,62.91
2018-06-24T01:04:32.298Z,64.07
2018-06-24T01:07:00.592Z,65.92
2018-06-24T01:09:28.696Z,64.16
2018-06-24T01:11:56.885Z,63.83
2018-06-24T01:14:24.971Z,64.99
2018-06-24T01:16:53.058Z,66.94
2018-06-24T01:19:21.174Z,66.79
2018-06-24T01:21:49.241Z,66.46
2018-06-24T01:24:17.669Z,66.48
2018-06-24T01:26:45.759Z,66.29
2018-06-24T01:29:13.867Z,66.27
2018-06-24T01:31:42.012Z,65.51
2018-06-24T01:34:10.082Z,66.95
2018-06-24T01:36:38.178Z,67.76
2018-06-24T01:39:06.790Z,66.63
2018-06-24T01:41:34.868Z,66.67
2018-06-24T01:44:03.043Z,67.55
2018-06-24T01:46:31.111Z,66.33
2018-06-24T01:48:59.280Z,67.43
2018-06-24T01:51:27.378Z,67.69
2018-06-24T01:53:55.834Z,67.19
2018-06-24T01:56:23.982Z,67.31
2018-06-24T01:58:52.736Z,67.87
2018-06-24T02:01:20.892Z,69.06
2018-06-24T02:03:48.973Z,68.80
2018-06-24T02:06:17.108Z,67.71
2018-06-24T02:08:45.180Z,67.74
2018-06-24T02:11:13.288Z,68.52
2018-06-24T02:13:41.393Z,67.11
2018-06-24T02:16:09.565Z,66.92
2018-06-24T02:18:38.226Z,68.84
2018-06-24T02:21:06.369Z,67.34
2018-06-24T02:23:34.450Z,67.93
2018-06-24T02:26:02.563Z,67.81
2018-06-24T02:28:30.815Z,69.66
2018-06-24T02:30:58.956Z,70.45
2018-06-24T02:33:27.045Z,67.80
2018-06-24T02:35:55.138Z,71.09
2018-06-24T02:38:23.212Z,70.06
2018-06-24T02:40:51.360Z,69.84
2018-06-24T02:43:19.528Z,70.46
2018-06-24T02:45:47.755Z,72.35
2018-06-24T02:48:15.836Z,71.63
2018-06-24T02:50:43.974Z,71.05
2018-06-24T02:53:12.071Z,70.32
2018-06-24T02:55:40.189Z,70.53
2018-06-24T02:58:08.333Z,70.50
2018-06-24T03:00:36.459Z,70.69
2018-06-24T03:03:04.586Z,71.62
2018-06-24T03:05:32.698Z,70.88
2018-06-24T03:08:00.839Z,70.36
2018-06-24T03:10:28.995Z,70.91
2018-06-24T03:12:57.381Z,71.22
2018-06-24T03:15:25.600Z,72.09
2018-06-24T03:17:53.930Z,72.41
2018-06-24T03:20:23.080Z,71.80
2018-06-24T03:22:51.237Z,72.24
2018-06-24T03:25:19.410Z,72.45
2018-06-24T03:27:47.531Z,71.83
2018-06-24T03:30:15.841Z,70.93
2018-06-24T03:32:44.102Z,71.06
2018-06-24T03:35:12.317Z,71.32
2018-06-24T03:37:40.649Z,71.98
2018-06-24T03:40:08.821Z,72.33
2018-06-24T03:42:37.022Z,72.22
2018-06-24T03:45:05.618Z,71.24
2018-06-24T03:47:33.739Z,71.08
2018-06-24T03:50:01.865Z,72.34
2018-06-24T03:52:30.041Z,71.32
2018-06-24T03:54:58.213Z,71.74
2018-06-24T03:57:26.303Z,71.66
2018-06-24T03:59:54.516Z,71.74
2018-06-24T04:02:23.299Z,72.06
2018-06-24T04:04:51.468Z,72.03
2018-06-24T04:07:19.494Z,72.38
2018-06-24T04:09:47.630Z,72.30
2018-06-24T04:12:15.750Z,70.96
2018-06-24T04:14:43.840Z,72.14
2018-06-24T04:17:11.933Z,71.68
2018-06-24T04:19:40.066Z,72.39
2018-06-24T04:22:08.305Z,71.60
2018-06-24T04:24:37.031Z,72.47
2018-06-24T04:27:05.278Z,72.43
2018-06-24T04:29:33.358Z,72.48
2018-06-24T04:32:01.491Z,73.19
2018-06-24T04:34:29.675Z,72.09
2018-06-24T04:36:58.109Z,72.18
2018-06-24T04:39:26.221Z,72.30
2018-06-24T04:41:54.374Z,71.63
2018-06-24T04:45:50.354Z,71.62
2018-06-24T04:48:18.700Z,70.81
2018-06-24T04:50:46.816Z,72.52
2018-06-24T04:53:14.954Z,71.65
2018-06-24T04:55:43.159Z,72.56
2018-06-24T04:58:11.280Z,71.96
2018-06-24T05:00:39.453Z,72.14
2018-06-24T05:03:07.612Z,71.23
2018-06-24T05:05:35.738Z,70.63
2018-06-24T05:08:03.894Z,70.15
2018-06-24T05:10:32.271Z,70.24
2018-06-24T05:13:00.429Z,71.88
2018-06-24T05:15:28.588Z,71.99
2018-06-24T05:17:56.693Z,70.52
2018-06-24T05:20:24.918Z,71.45
2018-06-24T05:22:53.856Z,70.76
2018-06-24T05:25:21.944Z,70.73
2018-06-24T05:27:50.015Z,70.74
2018-06-24T05:30:18.797Z,69.90
2018-06-24T05:32:46.222Z,70.85
2018-06-24T05:35:14.502Z,69.12
2018-06-24T05:37:42.638Z,69.28
2018-06-24T05:40:10.662Z,68.29
2018-06-24T05:42:39.262Z,68.25
2018-06-24T05:45:07.338Z,67.93
2018-06-24T05:47:35.431Z,67.40
2018-06-24T05:50:03.487Z,66.32
2018-06-24T05:52:31.570Z,66.44
2018-06-24T05:54:59.702Z,68.02
2018-06-24T05:57:27.766Z,66.68
2018-06-24T05:59:56.023Z,67.87
2018-06-24T06:02:24.076Z,66.69
2018-06-24T06:04:52.130Z,65.96
2018-06-24T06:07:20.270Z,66.28
2018-06-24T06:09:48.410Z,66.49
2018-06-24T06:12:16.495Z,65.88
2018-06-24T06:14:44.571Z,65.71
2018-06-24T06:17:12.640Z,66.30
2018-06-24T06:19:40.975Z,67.40
2018-06-24T06:22:09.020Z,66.29
2018-06-24T06:24:37.071Z,66.17
2018-06-24T06:27:05.521Z,65.95
2018-06-24T06:29:33.737Z,65.37
2018-06-24T06:32:01.888Z,64.77
2018-06-24T06:34:30.059Z,64.27
2018-06-24T06:36:58.370Z,64.92
2018-06-24T06:39:26.543Z,64.76
2018-06-24T06:41:54.650Z,65.56
2018-06-24T06:44:22.799Z,64.09
2018-06-24T06:46:51.070Z,65.08
2018-06-24T06:49:19.248Z,64.50
2018-06-24T06:51:47.446Z,62.59
2018-06-24T06:54:15.566Z,63.11
2018-06-24T06:56:44.626Z,62.46
2018-06-24T06:59:12.762Z,62.04
2018-06-24T07:01:40.900Z,60.54
2018-06-24T07:04:09.119Z,60.45
2018-06-24T07:06:37.250Z,59.34
2018-06-24T07:09:07.587Z,58.13
2018-06-24T07:11:35.771Z,58.71
2018-06-24T07:14:03.898Z,59.39
2018-06-24T07:16:31.995Z,59.37
2018-06-24T07:19:00.266Z,57.58
2018-06-24T07:21:28.386Z,56.88
2018-06-24T07:23:56.587Z,57.34
2018-06-24T07:26:24.810Z,56.79
2018-06-24T07:28:52.975Z,55.46
2018-06-24T07:31:21.158Z,53.46
2018-06-24T07:33:49.382Z,52.99
2018-06-24T07:36:18.096Z,53.69
2018-06-24T07:38:46.437Z,53.72
2018-06-24T07:41:14.711Z,53.54
2018-06-24T07:43:42.855Z,52.34
2018-06-24T07:46:10.960Z,53.76
2018-06-24T07:48:39.322Z,51.67
2018-06-24T07:51:07.425Z,49.63
2018-06-24T07:53:35.548Z,50.33
2018-06-24T07:56:03.679Z,50.98
2018-06-24T07:58:31.831Z,50.97
2018-06-24T08:01:00.125Z,51.97
2018-06-24T08:03:28.229Z,51.58
2018-06-24T08:05:56.367Z,51.75
2018-06-24T08:08:24.456Z,51.80
2018-06-24T08:10:52.663Z,51.58
2018-06-24T08:13:20.938Z,51.10
2018-06-24T08:15:49.067Z,50.75
2018-06-24T08:18:17.229Z,51.56
2018-06-24T08:20:45.355Z,51.79
2018-06-24T08:23:13.453Z,51.99
2018-06-24T08:25:41.912Z,51.51
2018-06-24T08:28:10.479Z,50.86
2018-06-24T08:30:39.400Z,50.94
2018-06-24T08:33:07.679Z,50.98
2018-06-24T08:35:35.927Z,50.33
2018-06-24T08:38:04.142Z,49.85
2018-06-24T08:40:32.236Z,49.78
2018-06-24T08:43:00.374Z,50.25
2018-06-24T08:45:28.515Z,50.02
2018-06-24T08:47:56.672Z,50.82
2018-06-24T08:50:24.792Z,49.40
2018-06-24T08:52:52.938Z,48.38
2018-06-24T08:55:21.344Z,49.91
2018-06-24T08:57:49.469Z,49.97
2018-06-24T09:00:17.758Z,50.11
2018-06-24T09:02:45.888Z,50.09
2018-06-24T09:05:14.006Z,49.27
2018-06-24T09:07:42.202Z,49.95
2018-06-24T09:10:10.520Z,49.64
2018-06-24T09:12:38.655Z,48.84
2018-06-24T09:15:06.777Z,49.52
2018-06-24T09:17:34.965Z,49.03
2018-06-24T09:20:03.551Z,49.13
2018-06-24T09:22:31.714Z,48.80
2018-06-24T09:24:59.834Z,48.55
2018-06-24T09:27:29.594Z,48.22
2018-06-24T09:29:57.674Z,48.71
2018-06-24T09:32:25.802Z,49.92
2018-06-24T09:34:54.748Z,49.25
2018-06-24T09:37:23.974Z,48.29
2018-06-24T09:39:52.027Z,46.77
2018-06-24T09:42:20.117Z,47.78
2018-06-24T09:44:48.263Z,47.74
2018-06-24T09:47:16.417Z,47.64
2018-06-24T09:49:44.493Z,46.38
2018-06-24T09:52:12.666Z,47.59
2018-06-24T09:54:40.739Z,47.44
2018-06-24T09:57:08.887Z,47.00
2018-06-24T09:59:36.983Z,46.31
2018-06-24T10:02:05.172Z,45.74
2018-06-24T10:04:33.275Z,44.99
2018-06-24T10:07:01.408Z,45.35
2018-06-24T10:09:29.561Z,45.99
2018-06-24T10:11:57.643Z,46.07
2018-06-24T10:14:25.741Z,46.64
2018-06-24T10:16:53.957Z,48.27
2018-06-24T10:19:22.081Z,47.58
2018-06-24T10:21:50.118Z,46.81
2018-06-24T10:24:18.250Z,46.67
2018-06-24T10:26:46.475Z,47.18
2018-06-24T10:29:14.639Z,47.42
2018-06-24T10:31:42.865Z,47.92
2018-06-24T10:34:11.029Z,47.81
2018-06-24T10:36:39.320Z,47.57
2018-06-24T10:39:09.722Z,47.62
2018-06-24T10:41:37.850Z,48.38
2018-06-24T10:44:06.166Z,48.10
2018-06-24T10:46:34.945Z,48.00
2018-06-24T10:49:03.113Z,47.25
2018-06-24T10:51:31.391Z,47.02
2018-06-24T10:53:59.755Z,48.36
2018-06-24T10:56:27.882Z,45.09
2018-06-24T10:58:57.388Z,44.72
2018-06-24T11:01:25.516Z,44.83
2018-06-24T11:03:57.412Z,44.28
2018-06-24T11:06:25.807Z,42.66
2018-06-24T11:08:54.064Z,43.17
2018-06-24T11:11:22.839Z,43.72
2018-06-24T11:13:52.650Z,44.00
2018-06-24T11:16:21.362Z,43.36
2018-06-24T11:18:49.536Z,43.38
2018-06-24T11:21:17.914Z,42.86
2018-06-24T11:23:46.149Z,42.76
2018-06-24T11:26:14.340Z,43.83
2018-06-24T11:28:42.683Z,43.04
2018-06-24T11:31:11.208Z,42.36
2018-06-24T11:33:39.441Z,41.73
2018-06-24T11:36:07.754Z,42.13
2018-06-24T11:38:35.899Z,42.34
2018-06-24T11:41:04.012Z,41.34
2018-06-24T11:43:32.589Z,40.55
2018-06-24T11:46:00.715Z,41.53
2018-06-24T11:48:28.928Z,41.25
2018-06-24T11:50:57.115Z,41.61
2018-06-24T11:53:25.482Z,42.23
2018-06-24T11:55:53.796Z,43.55
2018-06-24T11:58:21.928Z,41.79
2018-06-24T12:00:50.053Z,41.75
2018-06-24T12:03:18.691Z,40.17
2018-06-24T12:05:46.862Z,41.93
2018-06-24T12:08:15.114Z,42.23
2018-06-24T12:10:43.582Z,43.28
2018-06-24T12:13:11.663Z,42.17
2018-06-24T12:15:39.772Z,41.55
2018-06-24T12:18:08.021Z,41.13
2018-06-24T12:20:36.166Z,40.93
2018-06-24T12:23:04.288Z,36.71
2018-06-24T12:25:32.414Z,37.45
2018-06-24T12:28:00.765Z,36.45
2018-06-24T12:30:29.057Z,35.52
2018-06-24T12:32:57.287Z,34.41
2018-06-24T12:35:26.756Z,34.39
2018-06-24T12:37:55.562Z,34.66
2018-06-24T12:40:32.307Z,33.29
2018-06-24T12:43:01.575Z,32.54
2018-06-24T12:45:29.746Z,32.36
2018-06-24T12:47:58.048Z,32.40
2018-06-24T12:50:26.195Z,33.19
2018-06-24T12:52:54.667Z,33.98
2018-06-24T12:55:22.884Z,35.08
2018-06-24T12:57:51.143Z,34.76
2018-06-24T13:00:19.856Z,35.61
2018-06-24T13:02:47.437Z,36.17
2018-06-24T13:05:15.523Z,37.99
2018-06-24T13:07:43.747Z,39.94
2018-06-24T13:10:11.985Z,39.71
2018-06-24T13:12:40.069Z,40.59
2018-06-24T13:15:08.378Z,39.45
2018-06-24T13:17:36.478Z,39.00
2018-06-24T13:20:04.991Z,39.04
2018-06-24T13:22:33.139Z,37.95
2018-06-24T13:25:01.364Z,37.57
2018-06-24T13:27:29.564Z,36.80
2018-06-24T13:29:57.660Z,37.69
2018-06-24T13:32:25.773Z,38.84
2018-06-24T13:34:53.890Z,39.12
2018-06-24T13:37:22.082Z,38.80
2018-06-24T13:39:50.198Z,37.41
2018-06-24T13:42:18.374Z,36.43
2018-06-24T13:44:46.467Z,37.44
2018-06-24T13:47:14.898Z,37.47
2018-06-24T13:49:43.082Z,36.89
2018-06-24T13:52:11.186Z,36.97
2018-06-24T13:54:39.299Z,37.01
2018-06-24T13:57:08.419Z,36.77
2018-06-24T13:59:36.578Z,38.47
2018-06-24T14:02:05.446Z,38.15
2018-06-24T14:04:33.558Z,37.82
2018-06-24T14:07:01.700Z,37.59
2018-06-24T14:09:29.834Z,37.21
2018-06-24T14:12:20.067Z,37.15
2018-06-24T14:15:01.709Z,38.11
2018-06-24T14:17:29.995Z,36.75
2018-06-24T14:19:58.308Z,36.16
2018-06-24T14:22:26.456Z,36.50
2018-06-24T14:24:54.590Z,36.57
2018-06-24T14:27:22.998Z,36.06
2018-06-24T14:29:51.119Z,35.73
2018-06-24T14:32:19.223Z,34.28
2018-06-24T14:34:47.302Z,33.20
2018-06-24T14:37:15.386Z,32.72
2018-06-24T14:39:43.530Z,32.24
2018-06-24T14:42:11.754Z,33.04
2018-06-24T14:44:39.870Z,34.44
2018-06-24T14:47:07.948Z,33.64
2018-06-24T14:49:36.101Z,35.36
2018-06-24T14:52:04.382Z,35.19
2018-06-24T14:54:32.472Z,34.91
2018-06-24T14:57:00.542Z,34.00
2018-06-24T14:59:29.691Z,34.23
2018-06-24T15:01:57.762Z,35.27
2018-06-24T15:04:26.251Z,34.59
2018-06-24T15:06:54.310Z,34.50
2018-06-24T15:09:22.462Z,34.76
2018-06-24T15:11:50.613Z,34.80
2018-06-24T15:14:18.684Z,35.58
2018-06-24T15:16:46.751Z,34.82
2018-06-24T15:19:14.979Z,35.54
2018-06-24T15:21:43.231Z,35.45
2018-06-24T15:24:11.735Z,37.79
2018-06-24T15:26:39.827Z,37.79
2018-06-24T15:29:07.939Z,38.12
2018-06-24T15:31:36.010Z,38.56
2018-06-24T15:34:04.246Z,38.52
2018-06-24T15:36:32.366Z,37.58
2018-06-24T15:39:01.656Z,36.91
2018-06-24T15:41:30.024Z,36.51
2018-06-24T15:43:58.138Z,36.58
2018-06-24T15:46:26.688Z,36.08
2018-06-24T15:48:55.374Z,36.92
2018-06-24T15:51:23.553Z,36.54
2018-06-24T15:53:51.591Z,36.12
2018-06-24T15:56:19.721Z,36.82
2018-06-24T15:58:47.847Z,35.79
2018-06-24T16:01:16.007Z,36.35
2018-06-24T16:03:44.148Z,36.03
2018-06-24T16:06:12.390Z,36.74
2018-06-24T16:08:40.453Z,37.27
2018-06-24T16:11:15.079Z,38.40
2018-06-24T16:13:43.210Z,37.14
2018-06-24T16:16:11.315Z,37.07
2018-06-24T16:18:42.007Z,37.21
2018-06-24T16:21:10.394Z,38.19
2018-06-24T16:23:38.367Z,37.93
2018-06-24T16:26:06.610Z,38.05
2018-06-24T16:28:34.779Z,38.06
2018-06-24T16:31:03.018Z,38.04
2018-06-24T16:33:31.191Z,38.11
2018-06-24T16:35:59.631Z,37.60
2018-06-24T16:38:27.734Z,39.01
2018-06-24T16:40:56.710Z,38.65
2018-06-24T16:43:25.191Z,39.99
2018-06-24T16:45:53.426Z,39.80
2018-06-24T16:48:21.630Z,40.08
2018-06-24T16:50:49.756Z,39.88
2018-06-24T16:53:17.867Z,39.70
2018-06-24T16:55:46.009Z,41.11
2018-06-24T16:58:14.240Z,40.12
2018-06-24T17:00:42.369Z,40.34
2018-06-24T17:03:10.494Z,40.27
2018-06-24T17:05:39.422Z,40.71
2018-06-24T17:08:08.155Z,41.78
2018-06-24T17:10:36.518Z,41.15
2018-06-24T17:13:04.781Z,41.07
2018-06-24T17:15:32.923Z,40.70
2018-06-24T17:18:01.173Z,40.65
2018-06-24T17:20:29.312Z,40.39
2018-06-24T17:22:57.482Z,40.75
2018-06-24T17:25:26.204Z,40.95
2018-06-24T17:27:54.334Z,41.16
2018-06-24T17:30:22.487Z,41.91
2018-06-24T17:32:50.677Z,42.12
2018-06-24T17:35:18.909Z,42.77
2018-06-24T17:37:47.058Z,43.20
2018-06-24T17:40:15.189Z,43.99
2018-06-24T17:42:44.185Z,43.49
2018-06-24T17:45:12.318Z,43.12
2018-06-24T17:47:40.631Z,43.08
2018-06-24T17:50:08.815Z,43.63
2018-06-24T17:52:36.897Z,43.52
2018-06-24T17:55:05.163Z,44.38
2018-06-24T17:57:33.379Z,44.51
2018-06-24T18:00:02.844Z,44.56
2018-06-24T18:02:31.045Z,45.05
2018-06-24T18:04:59.173Z,44.09
2018-06-24T18:07:27.328Z,44.60
2018-06-24T18:09:55.515Z,44.53
2018-06-24T18:12:24.751Z,44.38
2018-06-24T18:14:53.893Z,44.50
2018-06-24T18:17:25.894Z,44.13
2018-06-24T18:19:55.210Z,45.01
2018-06-24T18:22:25.470Z,44.33
2018-06-24T18:24:55.144Z,44.47
2018-06-24T18:27:24.669Z,45.33
2018-06-24T18:29:54.351Z,44.93
2018-06-24T18:32:23.790Z,45.00
2018-06-24T18:34:53.999Z,45.65
2018-06-24T18:37:24.363Z,45.04
2018-06-24T18:39:53.746Z,45.59
2018-06-24T18:42:22.991Z,44.65
2018-06-24T18:44:52.133Z,45.15
2018-06-24T18:47:21.537Z,46.36
2018-06-24T18:49:50.884Z,45.11
2018-06-24T18:52:20.608Z,45.16
2018-06-24T18:54:50.611Z,45.64
2018-06-24T18:57:20.091Z,45.84
2018-06-24T18:59:49.326Z,46.45
2018-06-24T19:02:18.732Z,45.91
2018-06-24T19:04:48.049Z,46.29
2018-06-24T19:07:16.916Z,46.13
2018-06-24T19:09:47.731Z,46.27
2018-06-24T19:12:15.883Z,46.28
2018-06-24T19:14:44.119Z,45.85
2018-06-24T19:17:12.227Z,46.31
2018-06-24T19:19:40.343Z,45.63
2018-06-24T19:22:08.508Z,46.58
2018-06-24T19:24:36.671Z,46.08
2018-06-24T19:27:05.082Z,45.78
2018-06-24T19:29:33.249Z,45.57
2018-06-24T19:32:01.510Z,46.71
2018-06-24T19:34:29.756Z,47.23
2018-06-24T19:36:57.981Z,47.95
2018-06-24T19:39:26.303Z,47.25
2018-06-24T19:41:54.409Z,47.33
2018-06-24T19:44:22.534Z,48.27
2018-06-24T19:46:50.621Z,48.27
2018-06-24T19:49:18.729Z,47.51
2018-06-24T19:51:47.391Z,48.64
2018-06-24T19:54:15.665Z,47.74
2018-06-24T19:56:44.496Z,49.09
2018-06-24T19:59:12.753Z,48.48
2018-06-24T20:01:40.953Z,48.69
2018-06-24T20:04:15.286Z,48.64
2018-06-24T20:06:45.108Z,49.05
2018-06-24T20:09:13.531Z,48.41
2018-06-24T20:11:41.656Z,48.73
2018-06-24T20:14:09.784Z,49.06
2018-06-24T20:16:37.945Z,49.46
2018-06-24T20:19:06.429Z,49.43
2018-06-24T20:21:34.594Z,48.88
2018-06-24T20:24:02.697Z,49.08
2018-06-24T20:26:30.818Z,49.61
2018-06-24T20:28:58.886Z,49.83
2018-06-24T20:31:27.815Z,48.76
2018-06-24T20:33:55.874Z,47.81
2018-06-24T20:36:27.289Z,47.75
2018-06-24T20:38:55.547Z,49.04
2018-06-24T20:41:23.646Z,48.73
2018-06-24T20:43:51.764Z,49.80
2018-06-24T20:46:19.924Z,49.12
2018-06-24T20:48:48.119Z,48.74
2018-06-24T20:51:16.189Z,48.72
2018-06-24T20:53:44.362Z,49.35
2018-06-24T20:56:12.465Z,49.39
2018-06-24T20:58:40.515Z,49.98
2018-06-24T21:01:08.621Z,49.58
2018-06-24T21:03:36.719Z,49.85
2018-06-24T21:06:04.835Z,49.80
2018-06-24T21:08:33.220Z,49.54
2018-06-24T21:11:01.408Z,50.41
2018-06-24T21:13:29.487Z,49.85
2018-06-24T21:15:58.026Z,49.83
2018-06-24T21:18:26.120Z,50.60
2018-06-24T21:20:54.762Z,49.45
2018-06-24T21:23:22.873Z,50.09
2018-06-24T21:25:51.060Z,50.01
2018-06-24T21:28:19.241Z,49.90
2018-06-24T21:30:47.557Z,49.89
2018-06-24T21:33:15.836Z,50.67
2018-06-24T21:35:45.807Z,50.46
2018-06-24T21:38:13.890Z,50.17
2018-06-24T21:40:42.098Z,50.46
2018-06-24T21:43:10.541Z,50.05
2018-06-24T21:45:38.675Z,51.03
2018-06-24T21:48:07.178Z,50.67
2018-06-24T21:50:35.233Z,50.95
2018-06-24T21:53:04.034Z,50.82
2018-06-24T21:55:32.136Z,51.06
2018-06-24T21:58:00.310Z,51.10
2018-06-24T22:00:28.570Z,51.35
2018-06-24T22:02:58.107Z,50.74
2018-06-24T22:05:26.443Z,51.00
2018-06-24T22:07:54.681Z,52.51
2018-06-24T22:10:22.940Z,51.08
2018-06-24T22:12:51.242Z,51.06
2018-06-24T22:15:19.326Z,51.77
2018-06-24T22:17:47.478Z,51.36
2018-06-24T22:20:15.593Z,51.16
2018-06-24T22:22:43.745Z,51.71
2018-06-24T22:25:11.968Z,52.43
2018-06-24T22:27:40.709Z,51.75
2018-06-24T22:30:09.040Z,52.20
2018-06-24T22:32:37.138Z,51.82
2018-06-24T22:35:06.485Z,52.46
2018-06-24T22:37:34.583Z,53.13
2018-06-24T22:40:02.907Z,52.69
2018-06-24T22:42:31.007Z,52.10
2018-06-24T22:44:59.164Z,52.80
2018-06-24T22:47:27.413Z,52.37
2018-06-24T22:49:55.583Z,52.15
2018-06-24T22:52:23.866Z,51.68
2018-06-24T22:54:51.978Z,51.99
2018-06-24T22:57:20.132Z,52.17
2018-06-24T23:00:25.099Z,52.79
2018-06-24T23:02:53.210Z,52.73
2018-06-24T23:05:21.330Z,52.64
2018-06-24T23:07:49.475Z,52.28
2018-06-24T23:10:17.843Z,52.81
2018-06-24T23:12:45.949Z,53.51
2018-06-24T23:15:14.094Z,53.44
2018-06-24T23:17:42.195Z,53.15
2018-06-24T23:20:10.460Z,53.41
2018-06-24T23:22:39.426Z,53.00
2018-06-24T23:25:07.659Z,54.53
2018-06-24T23:27:35.860Z,53.48
2018-06-24T23:30:04.918Z,53.83
2018-06-24T23:32:33.241Z,54.12
2018-06-24T23:35:01.537Z,54.16
2018-06-24T23:37:29.988Z,54.38
2018-06-24T23:39:59.009Z,54.73
2018-06-24T23:42:27.149Z,55.50
2018-06-24T23:44:55.437Z,55.46
2018-06-24T23:47:23.791Z,54.72
2018-06-24T23:49:52.090Z,56.59
2018-06-24T23:52:20.243Z,55.85
2018-06-24T23:54:48.351Z,56.01
2018-06-24T23:57:16.489Z,56.57
2018-06-24T23:59:44.674Z,56.24
